KHYX 231015Z AUTO 20012KT 10SM CLR 17/15 A2984 RMK AO2
Updated 10 min ago

Wind:
SSW at 14mph

Conditions:
Clear Skies

Humidity: 88%

Pressure:
29.84 in Hg

Temperature: 63°F